createdAt,value
2022-08-24T00:00:06.083Z,15.167847
2022-08-24T00:01:13.754Z,15.147705
2022-08-24T00:02:23.501Z,15.137634
2022-08-24T00:03:31.190Z,15.137634
2022-08-24T00:04:39.750Z,15.107422
2022-08-24T00:05:50.397Z,15.097351
2022-08-24T00:06:59.087Z,15.067139
2022-08-24T00:08:09.793Z,15.067139
2022-08-24T00:09:18.456Z,15.08728
2022-08-24T00:10:26.125Z,15.036926
2022-08-24T00:11:35.787Z,15.036926
2022-08-24T00:12:43.445Z,15.016785
2022-08-24T00:13:52.135Z,15.036926
2022-08-24T00:15:01.823Z,15.026855
2022-08-24T00:16:10.510Z,15.026855
2022-08-24T00:17:20.200Z,14.996643
2022-08-24T00:18:28.867Z,15.016785
2022-08-24T00:19:38.575Z,14.95636
2022-08-24T00:20:48.258Z,14.95636
2022-08-24T00:21:55.950Z,14.936218
2022-08-24T00:23:04.603Z,14.936218
2022-08-24T00:24:14.268Z,14.916077
2022-08-24T00:25:21.964Z,14.906006
2022-08-24T00:26:31.621Z,14.885864
2022-08-24T00:27:41.281Z,14.906006
2022-08-24T00:28:49.995Z,14.906006
2022-08-24T00:29:59.670Z,14.916077
2022-08-24T00:31:08.198Z,14.916077
2022-08-24T00:32:17.006Z,14.916077
2022-08-24T00:33:26.678Z,14.906006
2022-08-24T00:34:36.329Z,14.906006
2022-08-24T00:35:47.047Z,14.885864
2022-08-24T00:36:55.717Z,14.885864
2022-08-24T00:38:03.534Z,14.875793
2022-08-24T00:39:13.048Z,14.885864
2022-08-24T00:40:20.716Z,14.885864
2022-08-24T00:41:29.372Z,14.885864
2022-08-24T00:42:39.052Z,14.885864
2022-08-24T00:43:47.713Z,14.875793
2022-08-24T00:44:57.392Z,14.875793
2022-08-24T00:46:06.095Z,14.875793
2022-08-24T00:47:13.721Z,14.875793
2022-08-24T00:48:23.409Z,14.855652
2022-08-24T00:49:32.102Z,14.875793
2022-08-24T00:50:41.800Z,14.906006
2022-08-24T00:51:51.460Z,14.885864
2022-08-24T00:52:59.121Z,14.936218
2022-08-24T00:54:09.018Z,14.95636
2022-08-24T00:55:17.701Z,14.95636
2022-08-24T00:56:25.384Z,14.95636
2022-08-24T00:57:35.089Z,14.966431
2022-08-24T00:58:42.759Z,14.986572
2022-08-24T00:59:52.455Z,14.986572
2022-08-24T01:01:02.148Z,14.95636
2022-08-24T01:02:10.742Z,14.936218
2022-08-24T01:03:19.441Z,14.936218
2022-08-24T01:04:28.112Z,14.916077
2022-08-24T01:05:38.045Z,14.916077
2022-08-24T01:06:48.703Z,14.885864
2022-08-24T01:07:56.368Z,14.875793
2022-08-24T01:09:05.037Z,14.875793
2022-08-24T01:10:14.670Z,14.906006
2022-08-24T01:11:23.382Z,14.885864
2022-08-24T01:12:33.009Z,14.875793
2022-08-24T01:13:43.655Z,14.845581
2022-08-24T01:14:52.346Z,14.83551
2022-08-24T01:16:02.047Z,14.805298
2022-08-24T01:17:09.727Z,14.724731
2022-08-24T01:18:19.403Z,14.684448
2022-08-24T01:19:29.073Z,14.664307
2022-08-24T01:20:37.750Z,14.634094
2022-08-24T01:21:47.420Z,14.593811
2022-08-24T01:22:56.139Z,14.603882
2022-08-24T01:24:04.852Z,14.58374
2022-08-24T01:25:14.510Z,14.58374
2022-08-24T01:26:23.160Z,14.553528
2022-08-24T01:27:31.825Z,14.533386
2022-08-24T01:28:42.562Z,14.45282
2022-08-24T01:29:52.224Z,14.362183
2022-08-24T01:31:01.892Z,14.281616
2022-08-24T01:32:10.536Z,14.170837
2022-08-24T01:33:18.206Z,14.100342
2022-08-24T01:34:28.020Z,14.049988
2022-08-24T01:35:35.689Z,14.029846
2022-08-24T01:36:45.366Z,14.039917
2022-08-24T01:37:55.102Z,14.070129
2022-08-24T01:39:02.761Z,14.110413
2022-08-24T01:40:12.526Z,14.140625
2022-08-24T01:41:21.143Z,14.170837
2022-08-24T01:42:30.829Z,14.221191
2022-08-24T01:43:40.498Z,14.251404
2022-08-24T01:44:48.161Z,14.261475
2022-08-24T01:45:57.866Z,14.291687
2022-08-24T01:47:07.690Z,14.261475
2022-08-24T01:48:19.976Z,14.231262
2022-08-24T01:49:25.817Z,14.180908
2022-08-24T01:50:34.528Z,14.170837
2022-08-24T01:51:44.247Z,14.110413
2022-08-24T01:53:04.684Z,14.110413
2022-08-24T01:54:04.547Z,14.049988
2022-08-24T01:55:14.237Z,13.999634
2022-08-24T01:56:23.877Z,13.999634
2022-08-24T01:57:33.572Z,13.989563
2022-08-24T01:58:43.241Z,13.969421
2022-08-24T01:59:51.894Z,13.999634
2022-08-24T02:01:01.559Z,13.989563
2022-08-24T02:02:10.302Z,13.999634
2022-08-24T02:03:18.158Z,13.999634
2022-08-24T02:04:28.715Z,14.039917
2022-08-24T02:05:36.370Z,14.029846
2022-08-24T02:06:45.068Z,13.999634
2022-08-24T02:07:54.746Z,13.94928
2022-08-24T02:09:03.677Z,13.858643
2022-08-24T02:10:13.341Z,13.788147
2022-08-24T02:11:21.999Z,13.768005
2022-08-24T02:12:30.657Z,13.737793
2022-08-24T02:13:40.326Z,13.69751
2022-08-24T02:14:50.121Z,13.677368
2022-08-24T02:15:58.820Z,13.667297
2022-08-24T02:17:08.475Z,13.627014
2022-08-24T02:18:18.150Z,13.647156
2022-08-24T02:19:27.860Z,13.667297
2022-08-24T02:20:37.561Z,13.69751
2022-08-24T02:21:45.221Z,13.707581
2022-08-24T02:22:54.920Z,13.737793
2022-08-24T02:24:03.594Z,13.707581
2022-08-24T02:25:14.156Z,13.707581
2022-08-24T02:26:22.020Z,13.677368
2022-08-24T02:27:32.660Z,13.616943
2022-08-24T02:28:42.322Z,13.616943
2022-08-24T02:29:51.144Z,13.556519
2022-08-24T02:30:59.870Z,13.536377
2022-08-24T02:32:09.528Z,13.486023
2022-08-24T02:33:17.185Z,13.455811
2022-08-24T02:34:25.888Z,13.405457
2022-08-24T02:35:34.574Z,13.385315
2022-08-24T02:36:44.240Z,13.375244
2022-08-24T02:37:54.086Z,13.365173
2022-08-24T02:39:02.752Z,13.345032
2022-08-24T02:40:10.435Z,13.334961
2022-08-24T02:41:20.280Z,13.314819
2022-08-24T02:42:28.948Z,13.284607
2022-08-24T02:43:38.585Z,13.274536
2022-08-24T02:44:47.274Z,13.234253
2022-08-24T02:45:56.938Z,13.224182
2022-08-24T02:47:06.571Z,13.19397
2022-08-24T02:48:15.272Z,13.183899
2022-08-24T02:49:22.937Z,13.183899
2022-08-24T02:50:32.633Z,13.19397
2022-08-24T02:51:43.984Z,13.19397
2022-08-24T02:52:50.979Z,13.19397
2022-08-24T02:54:00.625Z,13.204041
2022-08-24T02:55:08.505Z,13.224182
2022-08-24T02:56:19.196Z,13.234253
2022-08-24T02:57:27.871Z,13.274536
2022-08-24T02:58:38.523Z,13.304749
2022-08-24T02:59:49.191Z,13.304749
2022-08-24T03:00:56.877Z,13.304749
2022-08-24T03:02:07.529Z,13.284607
2022-08-24T03:03:17.233Z,13.274536
2022-08-24T03:04:24.881Z,13.254395
2022-08-24T03:05:34.589Z,13.234253
2022-08-24T03:06:43.356Z,13.234253
2022-08-24T03:07:52.206Z,13.204041
2022-08-24T03:09:01.839Z,13.183899
2022-08-24T03:10:10.492Z,13.183899
2022-08-24T03:11:19.158Z,13.163757
2022-08-24T03:12:30.091Z,13.153687
2022-08-24T03:13:37.753Z,13.163757
2022-08-24T03:14:47.477Z,13.163757
2022-08-24T03:15:56.186Z,13.153687
2022-08-24T03:17:04.827Z,13.133545
2022-08-24T03:18:14.644Z,13.133545
2022-08-24T03:19:23.316Z,13.153687
2022-08-24T03:20:32.979Z,13.153687
2022-08-24T03:21:42.657Z,13.153687
2022-08-24T03:22:50.341Z,13.163757
2022-08-24T03:24:00.017Z,13.153687
2022-08-24T03:25:08.733Z,13.183899
2022-08-24T03:26:16.402Z,13.153687
2022-08-24T03:27:26.079Z,13.163757
2022-08-24T03:28:34.744Z,13.133545
2022-08-24T03:29:45.470Z,13.123474
2022-08-24T03:30:55.201Z,13.093262
2022-08-24T03:32:02.785Z,13.083191
2022-08-24T03:33:12.050Z,13.093262
2022-08-24T03:34:21.100Z,13.083191
2022-08-24T03:35:30.813Z,13.083191
2022-08-24T03:36:40.469Z,13.093262
2022-08-24T03:37:48.130Z,13.083191
2022-08-24T03:38:56.813Z,13.093262
2022-08-24T03:40:06.525Z,13.083191
2022-08-24T03:41:17.152Z,13.093262
2022-08-24T03:42:26.821Z,13.083191
2022-08-24T03:43:35.508Z,13.083191
2022-08-24T03:44:43.195Z,13.032837
2022-08-24T03:45:52.946Z,13.032837
2022-08-24T03:47:00.713Z,12.982483
2022-08-24T03:48:10.520Z,13.002625
2022-08-24T03:49:18.207Z,12.982483
2022-08-24T03:50:26.849Z,12.972412
2022-08-24T03:51:36.533Z,12.952271
2022-08-24T03:52:44.201Z,12.972412
2022-08-24T03:53:53.876Z,12.9422
2022-08-24T03:55:02.610Z,12.911987
2022-08-24T03:56:10.274Z,12.911987
2022-08-24T03:57:19.935Z,12.901917
2022-08-24T03:58:27.702Z,12.901917
2022-08-24T03:59:37.665Z,12.901917
2022-08-24T04:00:47.005Z,12.861633
2022-08-24T04:01:55.725Z,12.871704
2022-08-24T04:03:05.352Z,12.871704
2022-08-24T04:04:14.065Z,12.871704
2022-08-24T04:05:21.713Z,12.851562
2022-08-24T04:06:32.362Z,12.851562
2022-08-24T04:07:41.030Z,12.831421
2022-08-24T04:08:49.660Z,12.831421
2022-08-24T04:09:59.356Z,12.831421
2022-08-24T04:11:08.013Z,12.861633
2022-08-24T04:12:17.691Z,12.831421
2022-08-24T04:13:26.377Z,12.871704
2022-08-24T04:14:35.110Z,12.861633
2022-08-24T04:15:44.786Z,12.831421
2022-08-24T04:16:57.518Z,12.791138
2022-08-24T04:18:02.092Z,12.791138
2022-08-24T04:19:11.776Z,12.760925
2022-08-24T04:20:19.460Z,12.760925
2022-08-24T04:21:29.277Z,12.730713
2022-08-24T04:22:37.976Z,12.750854
2022-08-24T04:23:47.947Z,12.760925
2022-08-24T04:24:56.285Z,12.781067
2022-08-24T04:26:04.954Z,12.750854
2022-08-24T04:27:13.639Z,12.730713
2022-08-24T04:28:23.351Z,12.720642
2022-08-24T04:29:31.022Z,12.7005
2022-08-24T04:30:40.705Z,12.650146
2022-08-24T04:31:49.468Z,12.670288
2022-08-24T04:32:58.152Z,12.680359
2022-08-24T04:34:07.800Z,12.7005
2022-08-24T04:35:15.451Z,12.720642
2022-08-24T04:36:24.151Z,12.750854
2022-08-24T04:37:33.966Z,12.760925
2022-08-24T04:38:43.716Z,12.791138
2022-08-24T04:39:53.489Z,12.861633
2022-08-24T04:41:03.261Z,12.871704
2022-08-24T04:42:12.815Z,12.911987
2022-08-24T04:43:22.494Z,13.012695
2022-08-24T04:44:32.146Z,13.032837
2022-08-24T04:45:40.935Z,13.052979
2022-08-24T04:46:50.503Z,13.083191
2022-08-24T04:47:58.164Z,13.042908
2022-08-24T04:49:07.863Z,13.042908
2022-08-24T04:50:17.600Z,13.032837
2022-08-24T04:51:27.391Z,13.002625
2022-08-24T04:52:36.999Z,13.052979
2022-08-24T04:53:44.661Z,13.093262
2022-08-24T04:54:53.324Z,13.163757
2022-08-24T04:56:03.011Z,13.19397
2022-08-24T04:57:13.547Z,13.19397
2022-08-24T04:58:20.359Z,13.19397
2022-08-24T04:59:29.004Z,13.204041
2022-08-24T05:00:37.681Z,13.19397
2022-08-24T05:01:47.454Z,13.19397
2022-08-24T05:02:55.074Z,13.204041
2022-08-24T05:04:04.741Z,13.234253
2022-08-24T05:05:14.415Z,13.304749
2022-08-24T05:06:22.084Z,13.314819
2022-08-24T05:07:31.777Z,13.334961
2022-08-24T05:08:41.420Z,13.385315
2022-08-24T05:09:49.140Z,13.455811
2022-08-24T05:10:59.781Z,13.496094
2022-08-24T05:12:08.443Z,13.536377
2022-08-24T05:13:18.159Z,13.526306
2022-08-24T05:14:28.898Z,13.556519
2022-08-24T05:15:35.542Z,13.586731
2022-08-24T05:16:45.593Z,13.647156
2022-08-24T05:17:54.870Z,13.677368
2022-08-24T05:19:02.554Z,13.69751
2022-08-24T05:20:12.224Z,13.677368
2022-08-24T05:21:19.880Z,13.677368
2022-08-24T05:22:29.574Z,13.667297
2022-08-24T05:23:39.230Z,13.647156
2022-08-24T05:24:49.043Z,13.69751
2022-08-24T05:25:58.691Z,13.677368
2022-08-24T05:27:07.354Z,13.677368
2022-08-24T05:28:15.999Z,13.677368
2022-08-24T05:29:26.642Z,13.737793
2022-08-24T05:30:34.410Z,13.778076
2022-08-24T05:31:44.075Z,13.808289
2022-08-24T05:32:53.728Z,13.82843
2022-08-24T05:34:03.386Z,13.858643
2022-08-24T05:35:13.096Z,13.898926
2022-08-24T05:36:22.789Z,13.959351
2022-08-24T05:37:31.461Z,14.039917
2022-08-24T05:38:41.126Z,14.150696
2022-08-24T05:39:48.835Z,14.20105
2022-08-24T05:40:58.463Z,14.261475
2022-08-24T05:42:08.142Z,14.291687
2022-08-24T05:43:15.789Z,14.33197
2022-08-24T05:44:29.181Z,14.402466
2022-08-24T05:45:35.122Z,14.442749
2022-08-24T05:46:44.829Z,14.442749
2022-08-24T05:47:54.452Z,14.442749
2022-08-24T05:49:02.113Z,14.442749
2022-08-24T05:50:11.819Z,14.412537
2022-08-24T05:51:19.476Z,14.432678
2022-08-24T05:52:29.212Z,14.45282
2022-08-24T05:53:38.909Z,14.503174
2022-08-24T05:54:48.589Z,14.553528
2022-08-24T05:55:58.278Z,14.593811
2022-08-24T05:57:06.962Z,14.624023
2022-08-24T05:58:18.582Z,14.654236
2022-08-24T05:59:26.326Z,14.664307
2022-08-24T06:00:35.005Z,14.724731
2022-08-24T06:01:45.225Z,14.765015
2022-08-24T06:02:53.514Z,14.765015
2022-08-24T06:04:02.026Z,14.805298
2022-08-24T06:05:11.719Z,14.845581
2022-08-24T06:06:20.388Z,14.885864
2022-08-24T06:07:28.041Z,14.966431
2022-08-24T06:08:41.181Z,14.996643
2022-08-24T06:09:47.371Z,15.036926
2022-08-24T06:10:57.043Z,15.036926
2022-08-24T06:12:07.688Z,15.08728
2022-08-24T06:13:15.337Z,15.107422
2022-08-24T06:14:26.994Z,15.137634
2022-08-24T06:15:34.674Z,15.20813
2022-08-24T06:16:45.532Z,15.248413
2022-08-24T06:17:55.283Z,15.328979
2022-08-24T06:19:03.854Z,15.369263
2022-08-24T06:20:12.549Z,15.389404
2022-08-24T06:21:22.205Z,15.439758
2022-08-24T06:22:30.897Z,15.490112
2022-08-24T06:23:40.555Z,15.540466
2022-08-24T06:24:49.226Z,15.59082
2022-08-24T06:25:56.882Z,15.651245
2022-08-24T06:27:06.547Z,15.721741
2022-08-24T06:28:16.356Z,15.802307
2022-08-24T06:29:25.036Z,15.84259
2022-08-24T06:30:34.703Z,15.913086
2022-08-24T06:31:42.463Z,16.013794
2022-08-24T06:32:53.051Z,16.09436
2022-08-24T06:34:02.830Z,16.154785
2022-08-24T06:35:11.285Z,16.235352
2022-08-24T06:36:20.136Z,16.315918
2022-08-24T06:37:28.781Z,16.456909
2022-08-24T06:38:38.490Z,16.567688
2022-08-24T06:39:48.237Z,16.678467
2022-08-24T06:40:57.854Z,16.809387
2022-08-24T06:42:07.536Z,16.930237
2022-08-24T06:43:16.194Z,17.041016
2022-08-24T06:44:23.847Z,17.161865
2022-08-24T06:45:33.631Z,17.312927
2022-08-24T06:46:44.317Z,17.463989
2022-08-24T06:47:51.953Z,17.60498
2022-08-24T06:49:01.625Z,17.756042
2022-08-24T06:50:09.291Z,17.866821
2022-08-24T06:51:18.982Z,18.027954
2022-08-24T06:52:28.649Z,18.179016
2022-08-24T06:53:36.301Z,18.279724
2022-08-24T06:54:45.977Z,18.440857
2022-08-24T06:55:55.669Z,18.581848
2022-08-24T06:57:04.379Z,18.702698
2022-08-24T06:58:14.048Z,18.863831
2022-08-24T06:59:21.704Z,19.035034
2022-08-24T07:00:31.372Z,19.256592
2022-08-24T07:01:40.109Z,19.387512
2022-08-24T07:02:48.846Z,19.619141
2022-08-24T07:03:58.458Z,19.840698
2022-08-24T07:05:06.124Z,20.062256
2022-08-24T07:06:13.827Z,20.263672
2022-08-24T07:07:23.536Z,20.414734
2022-08-24T07:08:31.203Z,20.575867
2022-08-24T07:09:40.868Z,20.686646
2022-08-24T07:10:49.570Z,20.86792
2022-08-24T07:11:59.256Z,21.018982
2022-08-24T07:13:08.938Z,21.170044
2022-08-24T07:14:18.638Z,21.300964
2022-08-24T07:15:26.296Z,21.401672
2022-08-24T07:16:35.997Z,21.572876
2022-08-24T07:17:44.666Z,21.723938
2022-08-24T07:18:54.341Z,21.854858
2022-08-24T07:20:04.038Z,21.945496
2022-08-24T07:21:12.707Z,21.985779
2022-08-24T07:22:22.396Z,22.056274
2022-08-24T07:23:41.571Z,22.096558
2022-08-24T07:24:40.693Z,22.12677
2022-08-24T07:25:55.548Z,22.197266
2022-08-24T07:27:01.513Z,22.328186
2022-08-24T07:28:11.323Z,22.49939
2022-08-24T07:30:31.473Z,22.831726
2022-08-24T07:31:41.354Z,22.982788
2022-08-24T07:32:50.968Z,23.053284
2022-08-24T07:33:59.632Z,23.184204
2022-08-24T07:35:09.327Z,23.315125
2022-08-24T07:36:22.327Z,23.405762
2022-08-24T07:37:36.548Z,23.476257
2022-08-24T07:38:40.334Z,23.536682
2022-08-24T07:39:48.074Z,23.496399
2022-08-24T07:41:33.605Z,23.556824
2022-08-24T07:42:13.222Z,23.687744
2022-08-24T07:43:19.935Z,23.909302
2022-08-24T07:44:27.601Z,24.050293
2022-08-24T07:45:36.273Z,24.241638
2022-08-24T07:46:46.131Z,24.362488
2022-08-24T07:47:55.634Z,24.402771
2022-08-24T07:49:11.770Z,24.3927
2022-08-24T07:50:13.959Z,24.241638
2022-08-24T07:51:21.646Z,24.14093
2022-08-24T07:52:31.327Z,24.201355
2022-08-24T07:53:52.887Z,24.302063
2022-08-24T07:54:50.677Z,24.402771
2022-08-24T07:56:00.425Z,24.573975
2022-08-24T07:57:09.082Z,24.775391
2022-08-24T07:58:18.777Z,24.986877
2022-08-24T07:59:27.431Z,25.178223
2022-08-24T08:00:35.124Z,25.289001
2022-08-24T08:01:44.936Z,25.39978
2022-08-24T08:02:52.654Z,25.470276
2022-08-24T08:04:02.274Z,25.409851
2022-08-24T08:05:11.958Z,25.258789
2022-08-24T08:06:20.654Z,25.379639
2022-08-24T08:07:30.322Z,25.550842
2022-08-24T08:08:38.998Z,25.732117
2022-08-24T08:09:47.656Z,25.722046
2022-08-24T08:10:56.408Z,25.621338
2022-08-24T08:12:05.115Z,25.591125
2022-08-24T08:13:13.781Z,25.7724
2022-08-24T08:14:23.439Z,25.953674
2022-08-24T08:15:32.245Z,25.842896
2022-08-24T08:16:41.793Z,25.752258
2022-08-24T08:17:54.071Z,25.812683
2022-08-24T08:19:12.026Z,25.963745
2022-08-24T08:20:09.792Z,26.02417
2022-08-24T08:21:18.430Z,26.185303
2022-08-24T08:22:28.088Z,26.336365
2022-08-24T08:23:37.831Z,26.467285
2022-08-24T08:24:48.461Z,26.507568
2022-08-24T08:25:58.138Z,25.832825
2022-08-24T08:27:06.821Z,25.500488
2022-08-24T08:28:24.821Z,25.168152
2022-08-24T08:29:26.145Z,25.208435
2022-08-24T08:30:33.791Z,25.248718
2022-08-24T08:31:42.473Z,25.480347
2022-08-24T08:32:52.185Z,25.7724
2022-08-24T08:33:59.875Z,25.883179
2022-08-24T08:35:08.668Z,25.913391
2022-08-24T08:36:18.359Z,26.134949
2022-08-24T08:37:28.066Z,26.215515
2022-08-24T08:38:37.692Z,26.27594
2022-08-24T08:39:46.460Z,26.215515
2022-08-24T08:40:55.076Z,25.933533
2022-08-24T08:42:05.118Z,25.601196
2022-08-24T08:43:13.408Z,25.429993
2022-08-24T08:44:23.083Z,25.510559
2022-08-24T08:45:32.745Z,25.550842
2022-08-24T08:46:40.990Z,25.65155
2022-08-24T08:47:50.182Z,25.782471
2022-08-24T08:48:58.801Z,26.064453
2022-08-24T08:50:08.487Z,26.376648
2022-08-24T08:51:18.161Z,26.547852
2022-08-24T08:52:25.834Z,26.799622
2022-08-24T08:53:35.489Z,27.071533
2022-08-24T08:54:44.412Z,27.393799
2022-08-24T08:55:53.382Z,27.585144
2022-08-24T08:57:02.482Z,27.554932
2022-08-24T08:58:11.145Z,27.454224
2022-08-24T08:59:19.832Z,27.675781
2022-08-24T09:00:29.573Z,27.897339
2022-08-24T09:01:44.333Z,28.068542
2022-08-24T09:02:47.854Z,27.977905
2022-08-24T09:03:56.582Z,27.867126
2022-08-24T09:05:04.216Z,27.977905
2022-08-24T09:06:13.879Z,28.118896
2022-08-24T09:07:21.546Z,28.320312
2022-08-24T09:08:29.246Z,28.562012
2022-08-24T09:09:38.992Z,28.441162
2022-08-24T09:10:47.677Z,28.330383
2022-08-24T09:11:57.387Z,28.471375
2022-08-24T09:13:07.097Z,28.632507
2022-08-24T09:14:15.784Z,28.602295
2022-08-24T09:15:25.463Z,28.753357
2022-08-24T09:16:33.235Z,28.79364
2022-08-24T09:17:41.782Z,28.894348
2022-08-24T09:18:51.445Z,28.823853
2022-08-24T09:20:01.123Z,28.79364
2022-08-24T09:21:10.814Z,28.723145
2022-08-24T09:22:19.473Z,28.572083
2022-08-24T09:23:28.131Z,28.622437
2022-08-24T09:24:37.859Z,28.692932
2022-08-24T09:25:46.529Z,28.692932
2022-08-24T09:26:55.304Z,28.703003
2022-08-24T09:28:05.225Z,28.54187
2022-08-24T09:29:14.648Z,28.481445
2022-08-24T09:30:24.294Z,28.300171
2022-08-24T09:32:42.668Z,28.249817
2022-08-24T09:33:52.363Z,28.421021
2022-08-24T09:35:00.023Z,28.592224
2022-08-24T09:36:09.697Z,28.622437
2022-08-24T09:37:19.396Z,28.743286
2022-08-24T09:38:28.139Z,28.823853
2022-08-24T09:39:37.831Z,29.035339
2022-08-24T09:40:47.539Z,29.236755
2022-08-24T09:41:57.195Z,29.357605
2022-08-24T09:43:06.860Z,29.468384
2022-08-24T09:44:15.557Z,29.508667
2022-08-24T09:45:25.212Z,29.589233
2022-08-24T09:46:34.900Z,29.569092
2022-08-24T09:47:42.545Z,29.649658
2022-08-24T09:48:52.216Z,29.569092
2022-08-24T09:49:59.911Z,29.407959
2022-08-24T09:51:08.579Z,29.307251
2022-08-24T09:52:18.278Z,29.337463
2022-08-24T09:53:26.976Z,29.508667
2022-08-24T09:54:36.628Z,29.649658
2022-08-24T09:55:46.330Z,29.659729
2022-08-24T09:57:04.374Z,29.679871
2022-08-24T09:58:06.664Z,29.407959
2022-08-24T09:59:15.455Z,28.562012
2022-08-24T10:00:24.118Z,27.595215
2022-08-24T10:01:33.879Z,27.554932
2022-08-24T10:02:41.551Z,27.887268
2022-08-24T10:03:51.172Z,28.219604
2022-08-24T10:04:59.947Z,28.511658
2022-08-24T10:06:07.688Z,28.854065
2022-08-24T10:07:17.290Z,29.125977
2022-08-24T10:08:26.981Z,29.357605
2022-08-24T10:09:36.691Z,29.528809
2022-08-24T10:10:46.384Z,29.679871
2022-08-24T10:11:55.077Z,29.790649
2022-08-24T10:13:04.805Z,29.599304
2022-08-24T10:14:14.428Z,29.196472
2022-08-24T10:15:23.093Z,27.887268
2022-08-24T10:16:32.803Z,27.393799
2022-08-24T10:17:40.476Z,27.625427
2022-08-24T10:18:50.181Z,27.977905
2022-08-24T10:19:58.858Z,28.330383
2022-08-24T10:21:08.513Z,28.108826
2022-08-24T10:22:18.210Z,27.66571
2022-08-24T10:23:26.886Z,27.766418
2022-08-24T10:24:36.574Z,27.91748
2022-08-24T10:25:46.310Z,27.91748
2022-08-24T10:26:55.987Z,28.018188
2022-08-24T10:28:04.814Z,28.441162
2022-08-24T10:29:14.315Z,28.632507
2022-08-24T10:30:23.557Z,28.622437
2022-08-24T10:31:31.793Z,28.632507
2022-08-24T10:32:40.426Z,28.390808
2022-08-24T10:33:50.154Z,28.249817
2022-08-24T10:34:59.851Z,28.139038
2022-08-24T10:36:08.526Z,28.390808
2022-08-24T10:37:18.188Z,28.743286
2022-08-24T10:38:28.858Z,29.075623
2022-08-24T10:39:37.521Z,29.468384
2022-08-24T10:40:47.181Z,29.780579
2022-08-24T10:41:56.892Z,29.750366
2022-08-24T10:43:05.566Z,29.559021
2022-08-24T10:44:15.232Z,29.357605
2022-08-24T10:45:22.933Z,29.347534
2022-08-24T10:46:31.557Z,29.488525
2022-08-24T10:47:41.358Z,29.780579
2022-08-24T10:48:50.053Z,29.931641
2022-08-24T10:49:59.698Z,29.911499
2022-08-24T10:51:08.375Z,29.629517
2022-08-24T10:52:18.027Z,29.377747
2022-08-24T10:53:27.862Z,29.498596
2022-08-24T10:54:35.520Z,29.720154
2022-08-24T10:55:45.199Z,29.951782
2022-08-24T10:56:54.887Z,30.062561
2022-08-24T10:58:03.671Z,30.253906
2022-08-24T10:59:13.289Z,30.545959
2022-08-24T11:00:23.475Z,30.8078
2022-08-24T11:01:31.669Z,30.968933
2022-08-24T11:02:41.343Z,31.029358
2022-08-24T11:03:48.996Z,31.099854
2022-08-24T11:04:58.711Z,30.918579
2022-08-24T11:06:08.384Z,30.827942
2022-08-24T11:07:17.044Z,30.8078
2022-08-24T11:08:26.715Z,30.848083
2022-08-24T11:09:36.379Z,30.838013
2022-08-24T11:10:44.128Z,30.878296
2022-08-24T11:11:53.829Z,30.999146
2022-08-24T11:13:01.656Z,31.069641
2022-08-24T11:14:10.328Z,30.455322
2022-08-24T11:15:20.026Z,30.062561
2022-08-24T11:16:28.842Z,30.163269
2022-08-24T11:17:38.481Z,30.314331
2022-08-24T11:18:47.150Z,30.435181
2022-08-24T11:19:55.826Z,30.435181
2022-08-24T11:21:05.526Z,30.495605
2022-08-24T11:22:13.197Z,30.606384
2022-08-24T11:23:22.863Z,30.566101
2022-08-24T11:24:32.527Z,30.30426
2022-08-24T11:25:41.197Z,30.404968
2022-08-24T11:26:52.206Z,30.495605
2022-08-24T11:28:00.575Z,30.394897
2022-08-24T11:29:09.227Z,30.465393
2022-08-24T11:30:18.905Z,30.525818
2022-08-24T11:31:27.655Z,30.525818
2022-08-24T11:32:37.270Z,30.535889
2022-08-24T11:33:49.544Z,30.827942
2022-08-24T11:34:55.580Z,31.029358
2022-08-24T11:36:05.314Z,31.200562
2022-08-24T11:37:14.979Z,31.361694
2022-08-24T11:38:25.647Z,31.281128
2022-08-24T11:39:34.342Z,31.271057
2022-08-24T11:40:42.998Z,31.331482
2022-08-24T11:41:52.680Z,31.240845
2022-08-24T11:43:05.667Z,31.31134
2022-08-24T11:44:09.965Z,31.069641
2022-08-24T11:45:20.820Z,30.908508
2022-08-24T11:46:28.538Z,31.019287
2022-08-24T11:47:38.256Z,31.029358
2022-08-24T11:48:46.960Z,31.119995
2022-08-24T11:49:56.632Z,31.019287
2022-08-24T11:51:06.356Z,31.220703
2022-08-24T11:52:15.027Z,31.250916
2022-08-24T11:53:24.723Z,31.200562
2022-08-24T11:54:34.410Z,31.170349
2022-08-24T11:55:47.009Z,31.019287
2022-08-24T11:56:52.709Z,30.606384
2022-08-24T11:58:02.624Z,30.30426
2022-08-24T11:59:12.199Z,30.133057
2022-08-24T12:00:21.862Z,30.122986
2022-08-24T12:01:29.517Z,30.122986
2022-08-24T12:02:40.346Z,30.435181
2022-08-24T12:03:52.576Z,30.838013
2022-08-24T12:04:57.541Z,31.170349
2022-08-24T12:06:07.208Z,31.55304
2022-08-24T12:07:15.871Z,31.472473
2022-08-24T12:08:23.570Z,31.734314
2022-08-24T12:09:32.236Z,32.137146
2022-08-24T12:10:39.967Z,32.509766
2022-08-24T12:11:48.637Z,32.640686
2022-08-24T12:12:58.337Z,32.257996
2022-08-24T12:14:06.072Z,31.895447
2022-08-24T12:15:15.780Z,31.401978
2022-08-24T12:16:25.523Z,31.140137
2022-08-24T12:17:34.141Z,30.697021
2022-08-24T12:18:43.836Z,30.30426
2022-08-24T12:19:52.524Z,29.901428
2022-08-24T12:21:01.216Z,29.881287
2022-08-24T12:22:11.895Z,29.679871
2022-08-24T12:23:20.561Z,29.679871
2022-08-24T12:24:30.226Z,29.438171
2022-08-24T12:25:38.919Z,29.337463
2022-08-24T12:26:46.595Z,29.498596
2022-08-24T12:27:56.296Z,29.861145
2022-08-24T12:29:05.003Z,30.163269
2022-08-24T12:30:13.698Z,30.314331
2022-08-24T12:31:23.548Z,30.163269
2022-08-24T12:32:31.175Z,30.022278
2022-08-24T12:33:40.854Z,29.951782
2022-08-24T12:34:50.516Z,30.002136
2022-08-24T12:36:00.238Z,30.274048
2022-08-24T12:37:10.753Z,30.495605
2022-08-24T12:38:19.574Z,30.686951
2022-08-24T12:39:28.217Z,30.566101
2022-08-24T12:40:37.868Z,30.525818
2022-08-24T12:41:46.536Z,30.8078
2022-08-24T12:42:56.193Z,30.868225
2022-08-24T12:44:04.842Z,30.968933
2022-08-24T12:45:13.529Z,31.089783
2022-08-24T12:46:23.323Z,31.18042
2022-08-24T12:47:30.893Z,31.140137
2022-08-24T12:48:40.717Z,30.848083
2022-08-24T12:49:50.406Z,30.586243
2022-08-24T12:50:59.146Z,30.42511
2022-08-24T12:52:07.825Z,30.586243
2022-08-24T12:53:17.485Z,30.727234
2022-08-24T12:54:28.159Z,30.848083
2022-08-24T12:55:40.951Z,31.0495
2022-08-24T12:56:48.459Z,30.545959
2022-08-24T12:57:58.118Z,30.324402
2022-08-24T12:59:08.866Z,30.495605
2022-08-24T13:00:17.571Z,30.717163
2022-08-24T13:01:29.405Z,30.566101
2022-08-24T13:02:36.925Z,30.616455
2022-08-24T13:03:47.557Z,30.183411
2022-08-24T13:04:58.338Z,29.508667
2022-08-24T13:06:08.048Z,29.317322
2022-08-24T13:07:17.751Z,29.115906
2022-08-24T13:08:27.457Z,28.894348
2022-08-24T13:09:36.119Z,28.964844
2022-08-24T13:10:45.870Z,28.974915
2022-08-24T13:11:55.559Z,28.934631
2022-08-24T13:13:03.221Z,29.035339